Preview of NWS' New Version of Forecast
This preview is not operational and should not be used for support decisions.

Terminal Aerodrome Forecast (TAF)

Issued by National Weather Service (NWS)

                            
000
FTUS42 KKEY 220716 AAA
TAFEYW
TAF AMD
KEYW 220716Z 2207/2306 34011G18KT P6SM SCT040
      TEMPO 2207/2211 BKN040
     FM221300 36012G18KT P6SM SKC
     FM230100 35008KT P6SM SKC=